createdAt,value
2023-01-27T00:00:43.231Z,100178.09
2023-01-27T00:03:12.839Z,100177.88
2023-01-27T00:05:40.111Z,100173.50
2023-01-27T00:08:06.737Z,100177.69
2023-01-27T00:10:33.347Z,100179.56
2023-01-27T00:12:59.914Z,100176.28
2023-01-27T00:15:27.440Z,100171.97
2023-01-27T00:17:54.091Z,100172.94
2023-01-27T00:20:20.735Z,100169.19
2023-01-27T00:22:47.318Z,100170.00
2023-01-27T00:25:14.237Z,100172.34
2023-01-27T00:27:40.863Z,100172.41
2023-01-27T00:30:09.598Z,100167.06
2023-01-27T00:32:36.307Z,100162.84
2023-01-27T00:35:02.952Z,100169.69
2023-01-27T00:37:29.577Z,100158.56
2023-01-27T00:39:56.228Z,100174.16
2023-01-27T00:42:22.931Z,100162.03
2023-01-27T00:44:49.579Z,100162.13
2023-01-27T00:47:16.260Z,100162.13
2023-01-27T00:49:42.869Z,100162.16
2023-01-27T00:52:09.461Z,100162.97
2023-01-27T00:54:36.081Z,100158.81
2023-01-27T00:57:02.683Z,100156.31
2023-01-27T00:59:29.279Z,100161.53
2023-01-27T01:01:55.935Z,100162.31
2023-01-27T01:04:22.576Z,100156.91
2023-01-27T01:06:49.172Z,100161.91
2023-01-27T01:09:15.852Z,100157.56
2023-01-27T01:11:42.435Z,100159.34
2023-01-27T01:14:09.034Z,100156.94
2023-01-27T01:16:35.694Z,100157.88
2023-01-27T01:19:02.372Z,100160.38
2023-01-27T01:21:28.954Z,100157.19
2023-01-27T01:23:55.667Z,100164.84
2023-01-27T01:26:22.257Z,100162.31
2023-01-27T01:28:48.851Z,100155.31
2023-01-27T01:31:18.739Z,100154.94
2023-01-27T01:33:46.894Z,100165.25
2023-01-27T01:36:16.354Z,100152.47
2023-01-27T01:38:43.237Z,100158.50
2023-01-27T01:41:14.589Z,100153.44
2023-01-27T01:43:41.401Z,100148.88
2023-01-27T01:46:10.269Z,100150.09
2023-01-27T01:48:36.819Z,100150.13
2023-01-27T01:51:16.697Z,100156.94
2023-01-27T01:54:05.283Z,100149.94
2023-01-27T01:56:42.349Z,100149.91
2023-01-27T01:59:29.053Z,100143.97
2023-01-27T02:01:58.705Z,100137.13
2023-01-27T02:04:30.436Z,100147.44
2023-01-27T02:07:12.101Z,100143.16
2023-01-27T02:09:39.441Z,100132.06
2023-01-27T02:12:06.280Z,100133.63
2023-01-27T02:14:33.060Z,100124.88
2023-01-27T02:16:59.704Z,100132.50
2023-01-27T02:19:56.666Z,100125.81
2023-01-27T02:22:38.667Z,100126.56
2023-01-27T02:25:21.138Z,100118.19
2023-01-27T02:27:47.800Z,100111.84
2023-01-27T02:30:14.424Z,100101.44
2023-01-27T02:32:41.029Z,100096.91
2023-01-27T02:35:14.273Z,100101.88
2023-01-27T02:37:41.795Z,100088.06
2023-01-27T02:40:10.036Z,100096.47
2023-01-27T02:42:36.648Z,100089.59
2023-01-27T02:45:03.524Z,100093.97
2023-01-27T02:47:30.306Z,100089.69
2023-01-27T02:49:56.953Z,100086.41
2023-01-27T02:52:23.636Z,100086.44
2023-01-27T02:54:50.233Z,100082.81
2023-01-27T02:57:16.814Z,100081.75
2023-01-27T02:59:43.417Z,100079.53
2023-01-27T03:02:10.037Z,100077.81
2023-01-27T03:04:36.735Z,100068.34
2023-01-27T03:07:03.356Z,100072.00
2023-01-27T03:09:30.113Z,100063.28
2023-01-27T03:11:56.837Z,100058.94
2023-01-27T03:14:23.474Z,100058.94
2023-01-27T03:16:50.064Z,100059.84
2023-01-27T03:19:16.754Z,100045.25
2023-01-27T03:21:43.343Z,100051.31
2023-01-27T03:24:10.005Z,100040.53
2023-01-27T03:26:36.712Z,100048.16
2023-01-27T03:29:03.350Z,100046.22
2023-01-27T03:31:30.026Z,100051.16
2023-01-27T03:33:56.682Z,100052.72
2023-01-27T03:36:23.303Z,100048.66
2023-01-27T03:38:52.298Z,100045.25
2023-01-27T03:41:19.018Z,100038.44
2023-01-27T03:43:45.627Z,100046.13
2023-01-27T03:46:12.241Z,100044.41
2023-01-27T03:48:38.861Z,100039.34
2023-01-27T03:51:08.032Z,100041.09
2023-01-27T03:53:38.028Z,100034.09
2023-01-27T03:56:05.493Z,100029.06
2023-01-27T03:58:34.704Z,100029.22
2023-01-27T04:01:21.732Z,100028.06
2023-01-27T04:03:49.591Z,100031.00
2023-01-27T04:06:19.986Z,100032.72
2023-01-27T04:08:46.599Z,100035.28
2023-01-27T04:11:13.186Z,100031.31
2023-01-27T04:13:39.808Z,100027.06
2023-01-27T04:16:06.667Z,100030.63
2023-01-27T04:18:33.333Z,100027.75
2023-01-27T04:20:59.918Z,100033.59
2023-01-27T04:23:26.529Z,100024.31
2023-01-27T04:25:53.158Z,100021.75
2023-01-27T04:28:37.330Z,100024.34
2023-01-27T04:31:06.419Z,100033.78
2023-01-27T04:33:33.064Z,100030.31
2023-01-27T04:35:59.658Z,100032.78
2023-01-27T04:38:26.542Z,100038.94
2023-01-27T04:40:53.159Z,100043.00
2023-01-27T04:43:19.751Z,100043.31
2023-01-27T04:45:46.413Z,100049.47
2023-01-27T04:48:13.027Z,100047.81
2023-01-27T04:50:39.625Z,100045.31
2023-01-27T04:53:06.401Z,100048.78
2023-01-27T04:55:32.999Z,100047.47
2023-01-27T04:57:59.590Z,100055.75
2023-01-27T05:00:26.583Z,100048.81
2023-01-27T05:02:53.202Z,100051.16
2023-01-27T05:05:19.799Z,100045.31
2023-01-27T05:07:46.475Z,100039.25
2023-01-27T05:10:13.111Z,100043.31
2023-01-27T05:12:39.705Z,100037.88
2023-01-27T05:15:07.037Z,100039.00
2023-01-27T05:17:34.724Z,100039.03
2023-01-27T05:20:01.310Z,100034.03
2023-01-27T05:22:27.944Z,100039.00
2023-01-27T05:24:54.696Z,100036.50
2023-01-27T05:27:21.650Z,100042.25
2023-01-27T05:29:48.251Z,100040.34
2023-01-27T05:32:14.936Z,100043.88
2023-01-27T05:34:41.556Z,100038.03
2023-01-27T05:37:08.175Z,100038.97
2023-01-27T05:39:34.849Z,100051.63
2023-01-27T05:42:01.439Z,100045.75
2023-01-27T05:44:28.051Z,100041.47
2023-01-27T05:46:54.640Z,100046.50
2023-01-27T05:49:21.217Z,100046.34
2023-01-27T05:51:47.997Z,100038.72
2023-01-27T05:54:14.771Z,100039.50
2023-01-27T05:56:41.384Z,100030.81
2023-01-27T05:59:08.140Z,100037.03
2023-01-27T06:01:35.397Z,100034.44
2023-01-27T06:04:02.247Z,100035.81
2023-01-27T06:06:30.709Z,100034.34
2023-01-27T06:08:57.689Z,100029.06
2023-01-27T06:11:25.025Z,100024.56
2023-01-27T06:13:52.896Z,100022.78
2023-01-27T06:16:21.262Z,100029.25
2023-01-27T06:18:49.016Z,100029.06
2023-01-27T06:21:16.727Z,100030.16
2023-01-27T06:23:46.400Z,100032.84
2023-01-27T06:26:16.222Z,100036.25
2023-01-27T06:28:43.643Z,100027.72
2023-01-27T06:31:16.554Z,100030.44
2023-01-27T06:33:43.337Z,100030.69
2023-01-27T06:36:13.119Z,100022.97
2023-01-27T06:38:39.856Z,100029.84
2023-01-27T06:41:06.669Z,100030.53
2023-01-27T06:43:33.962Z,100036.38
2023-01-27T06:46:01.081Z,100035.47
2023-01-27T06:48:28.605Z,100042.63
2023-01-27T06:50:56.542Z,100034.84
2023-01-27T06:53:23.972Z,100044.28
2023-01-27T06:55:56.530Z,100047.75
2023-01-27T06:58:23.185Z,100043.25
2023-01-27T07:00:49.785Z,100053.72
2023-01-27T07:05:42.590Z,100043.16
2023-01-27T07:08:09.550Z,100050.63
2023-01-27T07:10:36.157Z,100053.09
2023-01-27T07:13:05.897Z,100049.75
2023-01-27T07:15:33.442Z,100054.03
2023-01-27T07:18:01.426Z,100057.75
2023-01-27T07:20:28.756Z,100057.56
2023-01-27T07:22:59.745Z,100054.91
2023-01-27T07:25:27.413Z,100062.22
2023-01-27T07:27:54.260Z,100055.94
2023-01-27T07:30:20.971Z,100055.31
2023-01-27T07:32:49.754Z,100053.75
2023-01-27T07:35:17.768Z,100050.97
2023-01-27T07:37:44.839Z,100048.09
2023-01-27T07:40:12.328Z,100041.91
2023-01-27T07:42:40.055Z,100041.06
2023-01-27T07:45:07.450Z,100042.06
2023-01-27T07:47:34.053Z,100034.13
2023-01-27T07:50:00.663Z,100042.22
2023-01-27T07:52:27.286Z,100040.34
2023-01-27T07:54:53.980Z,100044.75
2023-01-27T07:57:20.553Z,100050.78
2023-01-27T07:59:47.181Z,100056.19
2023-01-27T08:02:13.775Z,100056.41
2023-01-27T08:04:52.668Z,100062.91
2023-01-27T08:07:20.969Z,100059.53
2023-01-27T08:09:47.607Z,100061.72
2023-01-27T08:12:14.203Z,100062.44
2023-01-27T08:14:40.817Z,100069.47
2023-01-27T08:17:07.549Z,100062.50
2023-01-27T08:19:34.231Z,100069.31
2023-01-27T08:22:00.821Z,100070.13
2023-01-27T08:24:27.474Z,100067.94
2023-01-27T08:26:54.372Z,100064.91
2023-01-27T08:29:21.001Z,100072.44
2023-01-27T08:31:47.761Z,100074.22
2023-01-27T08:34:14.436Z,100083.28
2023-01-27T08:36:41.304Z,100076.00
2023-01-27T08:39:09.320Z,100075.75
2023-01-27T08:41:35.918Z,100074.81
2023-01-27T08:44:02.560Z,100070.59
2023-01-27T08:46:29.196Z,100076.53
2023-01-27T08:48:55.796Z,100078.22
2023-01-27T08:51:22.564Z,100084.16
2023-01-27T08:53:49.183Z,100090.38
2023-01-27T08:56:15.865Z,100088.78
2023-01-27T08:58:42.608Z,100081.81
2023-01-27T09:01:09.875Z,100084.56
2023-01-27T09:03:37.283Z,100084.75
2023-01-27T09:06:08.230Z,100092.19
2023-01-27T09:08:35.224Z,100087.91
2023-01-27T09:11:08.673Z,100084.38
2023-01-27T09:13:35.270Z,100094.00
2023-01-27T09:16:01.989Z,100094.63
2023-01-27T09:18:28.610Z,100090.06
2023-01-27T09:20:55.200Z,100104.28
2023-01-27T09:23:21.804Z,100097.06
2023-01-27T09:25:48.383Z,100103.09
2023-01-27T09:28:15.306Z,100096.72
2023-01-27T09:30:42.286Z,100096.31
2023-01-27T09:33:10.318Z,100101.97
2023-01-27T09:35:42.817Z,100104.03
2023-01-27T09:38:11.999Z,100102.44
2023-01-27T09:41:06.001Z,100104.75
2023-01-27T09:43:44.531Z,100103.03
2023-01-27T09:46:38.841Z,100103.25
2023-01-27T09:49:38.860Z,100107.59
2023-01-27T09:52:45.478Z,100099.31
2023-01-27T09:55:35.012Z,100099.88
2023-01-27T09:58:19.937Z,100096.50
2023-01-27T10:00:59.064Z,100097.59
2023-01-27T10:03:49.910Z,100097.56
2023-01-27T10:06:37.991Z,100089.06
2023-01-27T10:09:30.269Z,100089.69
2023-01-27T10:12:27.777Z,100090.13
2023-01-27T10:15:16.220Z,100090.94
2023-01-27T10:17:51.823Z,100092.47
2023-01-27T10:20:26.511Z,100096.44
2023-01-27T10:22:56.737Z,100091.03
2023-01-27T10:25:35.429Z,100093.31
2023-01-27T10:28:11.481Z,100082.34
2023-01-27T10:30:40.072Z,100088.38
2023-01-27T10:33:12.696Z,100089.41
2023-01-27T10:35:45.535Z,100085.84
2023-01-27T10:39:06.923Z,100083.09
2023-01-27T10:41:47.804Z,100076.50
2023-01-27T10:44:14.355Z,100083.06
2023-01-27T10:46:59.165Z,100076.91
2023-01-27T10:49:38.422Z,100084.03
2023-01-27T10:52:30.437Z,100076.03
2023-01-27T10:55:20.305Z,100064.78
2023-01-27T10:57:55.357Z,100070.78
2023-01-27T11:00:51.734Z,100072.84
2023-01-27T11:03:29.163Z,100066.59
2023-01-27T11:06:04.073Z,100069.88
2023-01-27T11:08:36.338Z,100057.56
2023-01-27T11:11:07.519Z,100054.88
2023-01-27T11:13:35.596Z,100061.53
2023-01-27T11:16:04.847Z,100060.59
2023-01-27T11:18:34.439Z,100058.38
2023-01-27T11:21:05.924Z,100055.00
2023-01-27T11:23:42.468Z,100055.31
2023-01-27T11:26:31.886Z,100055.34
2023-01-27T11:29:28.609Z,100047.50
2023-01-27T11:32:01.110Z,100057.09
2023-01-27T11:34:34.361Z,100046.50
2023-01-27T11:37:19.742Z,100050.19
2023-01-27T11:39:46.717Z,100037.34
2023-01-27T11:42:13.766Z,100036.81
2023-01-27T11:44:42.516Z,100029.25
2023-01-27T11:47:24.052Z,100025.75
2023-01-27T11:49:53.101Z,100026.38
2023-01-27T11:52:22.715Z,100018.44
2023-01-27T11:55:18.034Z,100016.91
2023-01-27T11:57:50.735Z,100022.56
2023-01-27T12:00:44.185Z,100014.75
2023-01-27T12:03:55.537Z,100014.06
2023-01-27T12:06:38.617Z,100008.22
2023-01-27T12:09:05.318Z,100010.69
2023-01-27T12:11:32.267Z,100008.16
2023-01-27T12:14:06.293Z,100002.97
2023-01-27T12:16:49.299Z,99992.88
2023-01-27T12:19:29.790Z,99995.25
2023-01-27T12:22:00.275Z,99995.03
2023-01-27T12:24:31.961Z,99990.84
2023-01-27T12:27:00.041Z,99985.72
2023-01-27T12:29:38.626Z,99983.78
2023-01-27T12:32:15.237Z,99984.94
2023-01-27T12:34:46.040Z,99980.47
2023-01-27T12:37:22.844Z,99987.56
2023-01-27T12:40:00.453Z,99983.00
2023-01-27T12:42:38.843Z,99983.34
2023-01-27T12:45:25.379Z,99989.72
2023-01-27T12:48:15.129Z,99984.16
2023-01-27T12:51:06.394Z,99983.22
2023-01-27T12:53:33.050Z,99981.28
2023-01-27T12:56:18.799Z,99985.84
2023-01-27T12:58:55.396Z,99982.69
2023-01-27T13:01:34.916Z,99982.53
2023-01-27T13:04:22.126Z,99978.22
2023-01-27T13:07:01.521Z,99976.31
2023-01-27T13:09:50.109Z,99983.44
2023-01-27T13:12:20.891Z,99981.69
2023-01-27T13:14:54.510Z,99993.66
2023-01-27T13:17:28.030Z,99996.38
2023-01-27T13:19:59.349Z,99999.72
2023-01-27T13:22:26.883Z,100001.63
2023-01-27T13:25:00.711Z,100002.66
2023-01-27T13:27:33.861Z,99997.41
2023-01-27T13:30:19.982Z,99998.34
2023-01-27T13:32:50.039Z,99999.00
2023-01-27T13:35:16.719Z,99999.56
2023-01-27T13:37:47.971Z,100002.28
2023-01-27T13:40:30.334Z,100000.56
2023-01-27T13:43:09.086Z,99998.75
2023-01-27T13:45:43.725Z,99999.63
2023-01-27T13:48:13.250Z,100006.06
2023-01-27T13:50:44.187Z,100014.59
2023-01-27T13:53:14.873Z,100014.53
2023-01-27T13:55:49.817Z,99996.34
2023-01-27T13:58:38.065Z,100002.38
2023-01-27T14:01:07.330Z,100003.59
2023-01-27T14:03:55.361Z,99989.53
2023-01-27T14:06:40.087Z,99998.00
2023-01-27T14:09:12.599Z,99993.81
2023-01-27T14:12:09.993Z,99998.06
2023-01-27T14:14:58.431Z,99999.72
2023-01-27T14:17:34.539Z,100005.69
2023-01-27T14:20:29.376Z,100006.59
2023-01-27T14:23:11.292Z,100007.66
2023-01-27T14:25:48.747Z,100007.66
2023-01-27T14:28:27.433Z,100001.00
2023-01-27T14:31:23.205Z,99999.19
2023-01-27T14:34:23.795Z,99996.38
2023-01-27T14:37:07.921Z,100010.38
2023-01-27T14:40:02.646Z,100000.03
2023-01-27T14:42:38.360Z,99999.25
2023-01-27T14:45:45.455Z,100000.97
2023-01-27T14:48:18.117Z,100000.91
2023-01-27T14:51:10.395Z,99988.00
2023-01-27T14:53:43.775Z,99994.22
2023-01-27T14:56:19.525Z,100000.03
2023-01-27T14:59:01.327Z,99994.16
2023-01-27T15:01:42.417Z,99994.19
2023-01-27T15:04:30.760Z,99998.34
2023-01-27T15:07:03.060Z,99990.72
2023-01-27T15:09:39.542Z,99990.44
2023-01-27T15:12:29.030Z,99990.34
2023-01-27T15:15:12.291Z,99993.50
2023-01-27T15:17:44.789Z,99993.94
2023-01-27T15:20:28.923Z,99989.97
2023-01-27T15:22:55.517Z,99999.75
2023-01-27T15:25:44.005Z,99997.69
2023-01-27T15:28:16.739Z,99999.19
2023-01-27T15:31:05.134Z,100003.50
2023-01-27T15:33:57.240Z,100001.94
2023-01-27T15:36:31.393Z,100009.81
2023-01-27T15:39:16.759Z,100013.25
2023-01-27T15:42:02.741Z,100018.25
2023-01-27T15:44:59.378Z,100010.44
2023-01-27T15:47:31.827Z,100006.00
2023-01-27T15:50:04.303Z,100014.00
2023-01-27T15:52:46.302Z,100007.75
2023-01-27T15:55:24.570Z,100016.25
2023-01-27T15:58:06.637Z,100012.78
2023-01-27T16:00:37.224Z,100011.41
2023-01-27T16:03:15.395Z,100013.16
2023-01-27T16:05:47.715Z,100008.09
2023-01-27T16:08:16.302Z,100013.00
2023-01-27T16:10:43.764Z,100015.56
2023-01-27T16:13:18.037Z,100012.31
2023-01-27T16:15:44.756Z,100021.72
2023-01-27T16:18:11.314Z,100025.75
2023-01-27T16:20:48.249Z,100018.94
2023-01-27T16:23:45.761Z,100026.13
2023-01-27T16:26:37.273Z,100034.75
2023-01-27T16:29:12.851Z,100033.91
2023-01-27T16:31:40.711Z,100039.69
2023-01-27T16:34:22.269Z,100041.47
2023-01-27T16:37:02.166Z,100039.75
2023-01-27T16:39:45.061Z,100042.34
2023-01-27T16:42:15.133Z,100049.22
2023-01-27T16:44:48.547Z,100059.81
2023-01-27T16:47:41.780Z,100057.81
2023-01-27T16:50:30.853Z,100053.88
2023-01-27T16:52:59.278Z,100054.66
2023-01-27T16:55:25.873Z,100055.41
2023-01-27T16:57:54.777Z,100056.38
2023-01-27T17:00:29.959Z,100058.84
2023-01-27T17:03:00.952Z,100063.31
2023-01-27T17:05:27.719Z,100059.19
2023-01-27T17:08:17.592Z,100058.44
2023-01-27T17:10:52.359Z,100070.34
2023-01-27T17:13:33.697Z,100068.59
2023-01-27T17:16:04.797Z,100071.81
2023-01-27T17:18:50.888Z,100071.88
2023-01-27T17:21:38.205Z,100072.78
2023-01-27T17:24:14.200Z,100079.09
2023-01-27T17:26:45.470Z,100073.06
2023-01-27T17:29:21.790Z,100068.63
2023-01-27T17:31:49.760Z,100064.13
2023-01-27T17:34:19.764Z,100074.53
2023-01-27T17:37:23.833Z,100068.00
2023-01-27T17:39:58.964Z,100067.00
2023-01-27T17:42:29.830Z,100066.91
2023-01-27T17:45:31.771Z,100066.81
2023-01-27T17:47:59.586Z,100060.81
2023-01-27T17:50:36.416Z,100067.66
2023-01-27T17:53:10.141Z,100067.13
2023-01-27T17:55:37.660Z,100076.44
2023-01-27T17:58:15.326Z,100073.88
2023-01-27T18:00:44.305Z,100080.72
2023-01-27T18:03:21.238Z,100073.69
2023-01-27T18:05:52.177Z,100075.56
2023-01-27T18:08:18.821Z,100083.69
2023-01-27T18:10:46.260Z,100084.38
2023-01-27T18:13:18.559Z,100083.47
2023-01-27T18:16:07.338Z,100084.44
2023-01-27T18:18:35.729Z,100087.00
2023-01-27T18:21:08.108Z,100088.44
2023-01-27T18:23:50.580Z,100085.09
2023-01-27T18:26:21.924Z,100084.22
2023-01-27T18:29:03.924Z,100081.38
2023-01-27T18:31:34.305Z,100082.28
2023-01-27T18:34:20.439Z,100086.09
2023-01-27T18:37:29.463Z,100081.78
2023-01-27T18:39:57.951Z,100085.13
2023-01-27T18:42:26.123Z,100078.16
2023-01-27T18:44:53.381Z,100080.00
2023-01-27T18:47:19.948Z,100083.47
2023-01-27T18:49:55.763Z,100086.88
2023-01-27T18:52:23.235Z,100087.56
2023-01-27T18:55:14.093Z,100091.03
2023-01-27T18:57:40.849Z,100091.47
2023-01-27T19:00:08.420Z,100088.78
2023-01-27T19:02:35.055Z,100093.75
2023-01-27T19:05:03.438Z,100095.78
2023-01-27T19:07:30.115Z,100097.19
2023-01-27T19:09:56.824Z,100081.50
2023-01-27T19:12:23.480Z,100088.44
2023-01-27T19:14:50.272Z,100104.22
2023-01-27T19:17:21.499Z,100097.25
2023-01-27T19:19:48.871Z,100103.22
2023-01-27T19:22:17.297Z,100099.00
2023-01-27T19:24:44.367Z,100094.03
2023-01-27T19:27:12.984Z,100099.94
2023-01-27T19:29:39.602Z,100103.47
2023-01-27T19:32:07.128Z,100101.00
2023-01-27T19:34:33.811Z,100107.00
2023-01-27T19:37:00.615Z,100106.97
2023-01-27T19:39:27.745Z,100105.94
2023-01-27T19:41:54.485Z,100109.47
2023-01-27T19:44:21.107Z,100110.97
2023-01-27T19:46:47.769Z,100109.69
2023-01-27T19:49:19.208Z,100105.38
2023-01-27T19:51:46.395Z,100105.97
2023-01-27T19:54:14.170Z,100122.38
2023-01-27T19:56:40.761Z,100122.47
2023-01-27T19:59:08.652Z,100118.25
2023-01-27T20:01:35.243Z,100120.81
2023-01-27T20:04:01.880Z,100119.09
2023-01-27T20:06:30.924Z,100121.66
2023-01-27T20:08:59.382Z,100126.72
2023-01-27T20:11:40.840Z,100125.13
2023-01-27T20:14:12.482Z,100124.75
2023-01-27T20:16:39.297Z,100136.00
2023-01-27T20:19:06.045Z,100137.81
2023-01-27T20:21:32.677Z,100128.50
2023-01-27T20:23:59.344Z,100134.47
2023-01-27T20:26:25.963Z,100131.84
2023-01-27T20:28:52.703Z,100146.50
2023-01-27T20:31:21.128Z,100138.75
2023-01-27T20:33:47.761Z,100135.38
2023-01-27T20:36:14.991Z,100142.13
2023-01-27T20:38:41.592Z,100137.13
2023-01-27T20:41:09.958Z,100136.19
2023-01-27T20:43:36.662Z,100138.06
2023-01-27T20:46:08.639Z,100137.09
2023-01-27T20:48:35.928Z,100138.84
2023-01-27T20:51:05.118Z,100141.59
2023-01-27T20:53:35.133Z,100145.81
2023-01-27T20:56:03.112Z,100150.09
2023-01-27T20:58:30.330Z,100149.13
2023-01-27T21:01:09.214Z,100158.72
2023-01-27T21:03:37.153Z,100145.81
2023-01-27T21:06:04.712Z,100150.16
2023-01-27T21:08:31.826Z,100147.56
2023-01-27T21:11:02.955Z,100143.06
2023-01-27T21:13:30.120Z,100145.78
2023-01-27T21:15:56.912Z,100144.41
2023-01-27T21:18:24.573Z,100142.53
2023-01-27T21:20:53.400Z,100144.97
2023-01-27T21:23:27.358Z,100145.16
2023-01-27T21:25:54.375Z,100144.09
2023-01-27T21:28:21.684Z,100145.03
2023-01-27T21:30:48.563Z,100138.84
2023-01-27T21:33:15.285Z,100139.09
2023-01-27T21:35:41.870Z,100144.38
2023-01-27T21:38:08.564Z,100143.38
2023-01-27T21:40:35.360Z,100157.88
2023-01-27T21:43:01.998Z,100145.84
2023-01-27T21:45:28.711Z,100151.09
2023-01-27T21:47:55.324Z,100152.56
2023-01-27T21:50:22.023Z,100156.97
2023-01-27T21:52:50.386Z,100151.06
2023-01-27T21:55:26.383Z,100160.66
2023-01-27T21:57:54.939Z,100158.72
2023-01-27T22:00:26.708Z,100155.25
2023-01-27T22:02:59.247Z,100153.25
2023-01-27T22:05:27.029Z,100158.72
2023-01-27T22:07:53.761Z,100155.31
2023-01-27T22:10:24.502Z,100153.47
2023-01-27T22:12:51.778Z,100156.25
2023-01-27T22:15:19.955Z,100161.25
2023-01-27T22:17:46.597Z,100154.00
2023-01-27T22:20:14.857Z,100160.44
2023-01-27T22:22:42.744Z,100153.69
2023-01-27T22:25:12.093Z,100159.63
2023-01-27T22:27:38.796Z,100153.56
2023-01-27T22:30:06.178Z,100151.97
2023-01-27T22:32:32.834Z,100148.59
2023-01-27T22:34:59.471Z,100151.16
2023-01-27T22:37:26.081Z,100140.69
2023-01-27T22:39:52.679Z,100134.69
2023-01-27T22:42:19.302Z,100145.63
2023-01-27T22:44:45.899Z,100144.06
2023-01-27T22:47:12.554Z,100145.63
2023-01-27T22:49:39.151Z,100142.25
2023-01-27T22:52:05.757Z,100139.47
2023-01-27T22:54:32.385Z,100137.25
2023-01-27T22:57:00.985Z,100145.88
2023-01-27T22:59:27.773Z,100144.03
2023-01-27T23:01:54.944Z,100151.09
2023-01-27T23:04:21.552Z,100138.97
2023-01-27T23:06:48.253Z,100134.66
2023-01-27T23:09:15.153Z,100134.63
2023-01-27T23:11:41.803Z,100130.13
2023-01-27T23:14:08.539Z,100135.66
2023-01-27T23:16:35.382Z,100135.78
2023-01-27T23:19:02.349Z,100126.88
2023-01-27T23:21:28.976Z,100128.72
2023-01-27T23:23:55.739Z,100134.72
2023-01-27T23:26:22.423Z,100133.03
2023-01-27T23:28:49.197Z,100131.47
2023-01-27T23:31:15.991Z,100128.97
2023-01-27T23:33:43.356Z,100129.81
2023-01-27T23:36:11.164Z,100136.56
2023-01-27T23:38:38.656Z,100140.72
2023-01-27T23:41:11.810Z,100133.06
2023-01-27T23:43:40.995Z,100133.97
2023-01-27T23:46:07.762Z,100135.66
2023-01-27T23:48:34.501Z,100138.31
2023-01-27T23:51:09.168Z,100145.19
2023-01-27T23:53:35.905Z,100144.28
2023-01-27T23:56:02.644Z,100140.72
2023-01-27T23:58:29.247Z,100141.53
